sensor_id;sensor_type;location;lat;lon;timestamp;P1;durP1;ratioP1;P2;durP2;ratioP2
21014;SDS011;19207;-23.482;-46.500;2023-04-23T00:00:51;15.13;;;7.90;;
21014;SDS011;19207;-23.482;-46.500;2023-04-23T00:03:41;16.55;;;7.97;;
21014;SDS011;19207;-23.482;-46.500;2023-04-23T00:06:28;14.10;;;6.60;;
21014;SDS011;19207;-23.482;-46.500;2023-04-23T00:09:16;15.93;;;6.35;;
21014;SDS011;19207;-23.482;-46.500;2023-04-23T00:12:03;9.65;;;6.53;;
21014;SDS011;19207;-23.482;-46.500;2023-04-23T00:14:51;12.80;;;7.30;;
21014;SDS011;19207;-23.482;-46.500;2023-04-23T00:17:38;10.25;;;6.03;;
21014;SDS011;19207;-23.482;-46.500;2023-04-23T00:20:25;15.82;;;6.32;;
21014;SDS011;19207;-23.482;-46.500;2023-04-23T00:23:11;14.52;;;6.65;;
21014;SDS011;19207;-23.482;-46.500;2023-04-23T00:25:58;14.15;;;6.93;;
21014;SDS011;19207;-23.482;-46.500;2023-04-23T00:28:45;22.60;;;9.20;;
21014;SDS011;19207;-23.482;-46.500;2023-04-23T00:31:32;14.15;;;7.05;;
21014;SDS011;19207;-23.482;-46.500;2023-04-23T00:34:19;24.83;;;7.60;;
21014;SDS011;19207;-23.482;-46.500;2023-04-23T00:37:05;16.87;;;7.90;;
21014;SDS011;19207;-23.482;-46.500;2023-04-23T00:39:52;20.15;;;8.60;;
21014;SDS011;19207;-23.482;-46.500;2023-04-23T00:42:39;31.50;;;8.48;;
21014;SDS011;19207;-23.482;-46.500;2023-04-23T00:45:28;20.77;;;8.02;;
21014;SDS011;19207;-23.482;-46.500;2023-04-23T00:48:15;20.70;;;8.63;;
21014;SDS011;19207;-23.482;-46.500;2023-04-23T00:51:03;14.90;;;7.82;;
21014;SDS011;19207;-23.482;-46.500;2023-04-23T00:53:49;18.98;;;7.82;;
21014;SDS011;19207;-23.482;-46.500;2023-04-23T00:56:37;27.30;;;8.75;;
21014;SDS011;19207;-23.482;-46.500;2023-04-23T00:59:27;15.70;;;8.48;;
21014;SDS011;19207;-23.482;-46.500;2023-04-23T01:02:15;16.77;;;8.20;;
21014;SDS011;19207;-23.482;-46.500;2023-04-23T01:05:02;16.77;;;8.32;;
21014;SDS011;19207;-23.482;-46.500;2023-04-23T01:07:50;15.23;;;7.70;;
21014;SDS011;19207;-23.482;-46.500;2023-04-23T01:10:37;14.82;;;8.15;;
21014;SDS011;19207;-23.482;-46.500;2023-04-23T01:13:24;14.20;;;6.97;;
21014;SDS011;19207;-23.482;-46.500;2023-04-23T01:16:13;16.02;;;7.55;;
21014;SDS011;19207;-23.482;-46.500;2023-04-23T01:19:00;13.32;;;7.70;;
21014;SDS011;19207;-23.482;-46.500;2023-04-23T01:21:47;15.57;;;7.00;;
21014;SDS011;19207;-23.482;-46.500;2023-04-23T01:24:35;16.92;;;6.15;;
21014;SDS011;19207;-23.482;-46.500;2023-04-23T01:27:22;14.85;;;6.10;;
21014;SDS011;19207;-23.482;-46.500;2023-04-23T01:30:09;16.10;;;6.10;;
21014;SDS011;19207;-23.482;-46.500;2023-04-23T01:32:56;11.93;;;6.78;;
21014;SDS011;19207;-23.482;-46.500;2023-04-23T01:35:43;17.60;;;8.95;;
21014;SDS011;19207;-23.482;-46.500;2023-04-23T01:38:31;18.75;;;7.95;;
21014;SDS011;19207;-23.482;-46.500;2023-04-23T01:41:18;14.20;;;7.93;;
21014;SDS011;19207;-23.482;-46.500;2023-04-23T01:44:05;16.05;;;7.62;;
21014;SDS011;19207;-23.482;-46.500;2023-04-23T01:46:52;12.05;;;7.90;;
21014;SDS011;19207;-23.482;-46.500;2023-04-23T01:49:38;15.60;;;7.10;;
21014;SDS011;19207;-23.482;-46.500;2023-04-23T01:52:25;10.70;;;7.07;;
21014;SDS011;19207;-23.482;-46.500;2023-04-23T01:55:11;11.07;;;6.57;;
21014;SDS011;19207;-23.482;-46.500;2023-04-23T01:57:58;12.82;;;6.78;;
21014;SDS011;19207;-23.482;-46.500;2023-04-23T02:00:45;16.27;;;6.93;;
21014;SDS011;19207;-23.482;-46.500;2023-04-23T02:03:32;11.88;;;5.97;;
21014;SDS011;19207;-23.482;-46.500;2023-04-23T02:06:19;14.77;;;6.47;;
21014;SDS011;19207;-23.482;-46.500;2023-04-23T02:09:06;9.38;;;5.57;;
21014;SDS011;19207;-23.482;-46.500;2023-04-23T02:11:53;12.52;;;5.75;;
21014;SDS011;19207;-23.482;-46.500;2023-04-23T02:14:41;12.82;;;4.87;;
21014;SDS011;19207;-23.482;-46.500;2023-04-23T02:17:27;12.60;;;5.00;;
21014;SDS011;19207;-23.482;-46.500;2023-04-23T02:20:15;12.02;;;5.20;;
21014;SDS011;19207;-23.482;-46.500;2023-04-23T02:23:01;15.70;;;6.20;;
21014;SDS011;19207;-23.482;-46.500;2023-04-23T02:25:48;9.90;;;5.95;;
21014;SDS011;19207;-23.482;-46.500;2023-04-23T02:28:35;11.75;;;5.80;;
21014;SDS011;19207;-23.482;-46.500;2023-04-23T02:31:22;11.35;;;5.70;;
21014;SDS011;19207;-23.482;-46.500;2023-04-23T02:34:10;8.00;;;5.50;;
21014;SDS011;19207;-23.482;-46.500;2023-04-23T02:36:57;17.05;;;6.37;;
21014;SDS011;19207;-23.482;-46.500;2023-04-23T02:39:44;10.93;;;6.80;;
21014;SDS011;19207;-23.482;-46.500;2023-04-23T02:42:31;12.55;;;6.37;;
21014;SDS011;19207;-23.482;-46.500;2023-04-23T02:45:17;11.55;;;6.25;;
21014;SDS011;19207;-23.482;-46.500;2023-04-23T02:48:05;15.07;;;6.32;;
21014;SDS011;19207;-23.482;-46.500;2023-04-23T02:50:52;16.23;;;6.47;;
21014;SDS011;19207;-23.482;-46.500;2023-04-23T02:53:39;11.60;;;6.32;;
21014;SDS011;19207;-23.482;-46.500;2023-04-23T02:56:25;11.32;;;6.70;;
21014;SDS011;19207;-23.482;-46.500;2023-04-23T02:59:12;21.83;;;7.07;;
21014;SDS011;19207;-23.482;-46.500;2023-04-23T03:01:59;15.30;;;7.37;;
21014;SDS011;19207;-23.482;-46.500;2023-04-23T03:04:47;16.92;;;7.22;;
21014;SDS011;19207;-23.482;-46.500;2023-04-23T03:07:33;17.25;;;7.60;;
21014;SDS011;19207;-23.482;-46.500;2023-04-23T03:10:20;15.63;;;8.10;;
21014;SDS011;19207;-23.482;-46.500;2023-04-23T03:13:06;18.98;;;8.10;;
21014;SDS011;19207;-23.482;-46.500;2023-04-23T03:15:53;19.77;;;8.07;;
21014;SDS011;19207;-23.482;-46.500;2023-04-23T03:18:40;9.48;;;6.22;;
21014;SDS011;19207;-23.482;-46.500;2023-04-23T03:21:26;11.30;;;7.37;;
21014;SDS011;19207;-23.482;-46.500;2023-04-23T03:24:14;16.00;;;7.40;;
21014;SDS011;19207;-23.482;-46.500;2023-04-23T03:27:01;13.57;;;6.15;;
21014;SDS011;19207;-23.482;-46.500;2023-04-23T03:29:48;14.43;;;6.15;;
21014;SDS011;19207;-23.482;-46.500;2023-04-23T03:32:35;18.92;;;7.10;;
21014;SDS011;19207;-23.482;-46.500;2023-04-23T03:35:23;16.55;;;6.93;;
21014;SDS011;19207;-23.482;-46.500;2023-04-23T03:38:10;17.83;;;7.10;;
21014;SDS011;19207;-23.482;-46.500;2023-04-23T03:40:57;14.48;;;6.60;;
21014;SDS011;19207;-23.482;-46.500;2023-04-23T03:43:44;14.35;;;6.60;;
21014;SDS011;19207;-23.482;-46.500;2023-04-23T03:46:32;11.50;;;6.68;;
21014;SDS011;19207;-23.482;-46.500;2023-04-23T03:49:19;21.10;;;7.62;;
21014;SDS011;19207;-23.482;-46.500;2023-04-23T03:52:06;12.98;;;7.28;;
21014;SDS011;19207;-23.482;-46.500;2023-04-23T03:54:53;16.37;;;6.68;;
21014;SDS011;19207;-23.482;-46.500;2023-04-23T03:57:41;16.48;;;6.72;;
21014;SDS011;19207;-23.482;-46.500;2023-04-23T04:00:29;17.75;;;7.07;;
21014;SDS011;19207;-23.482;-46.500;2023-04-23T04:03:16;16.70;;;7.82;;
21014;SDS011;19207;-23.482;-46.500;2023-04-23T04:06:04;21.77;;;9.43;;
21014;SDS011;19207;-23.482;-46.500;2023-04-23T04:08:51;20.12;;;8.85;;
21014;SDS011;19207;-23.482;-46.500;2023-04-23T04:11:38;17.77;;;8.43;;
21014;SDS011;19207;-23.482;-46.500;2023-04-23T04:14:26;19.83;;;9.18;;
21014;SDS011;19207;-23.482;-46.500;2023-04-23T04:17:13;18.58;;;9.18;;
21014;SDS011;19207;-23.482;-46.500;2023-04-23T04:20:00;21.77;;;10.80;;
21014;SDS011;19207;-23.482;-46.500;2023-04-23T04:22:47;23.12;;;11.15;;
21014;SDS011;19207;-23.482;-46.500;2023-04-23T04:25:34;19.62;;;11.45;;
21014;SDS011;19207;-23.482;-46.500;2023-04-23T04:28:24;25.00;;;11.50;;
21014;SDS011;19207;-23.482;-46.500;2023-04-23T04:31:11;26.12;;;10.85;;
21014;SDS011;19207;-23.482;-46.500;2023-04-23T04:33:59;20.20;;;11.02;;
21014;SDS011;19207;-23.482;-46.500;2023-04-23T04:36:46;18.70;;;10.65;;
21014;SDS011;19207;-23.482;-46.500;2023-04-23T04:39:33;21.55;;;9.82;;
21014;SDS011;19207;-23.482;-46.500;2023-04-23T04:42:20;22.27;;;10.40;;
21014;SDS011;19207;-23.482;-46.500;2023-04-23T04:45:07;21.65;;;9.75;;
21014;SDS011;19207;-23.482;-46.500;2023-04-23T04:47:54;15.25;;;8.40;;
21014;SDS011;19207;-23.482;-46.500;2023-04-23T04:50:41;19.62;;;8.82;;
21014;SDS011;19207;-23.482;-46.500;2023-04-23T04:53:28;16.92;;;8.68;;
21014;SDS011;19207;-23.482;-46.500;2023-04-23T04:56:14;20.62;;;9.52;;
21014;SDS011;19207;-23.482;-46.500;2023-04-23T04:59:01;14.98;;;7.93;;
21014;SDS011;19207;-23.482;-46.500;2023-04-23T05:01:48;21.98;;;7.75;;
21014;SDS011;19207;-23.482;-46.500;2023-04-23T05:04:35;21.73;;;9.45;;
21014;SDS011;19207;-23.482;-46.500;2023-04-23T05:07:23;24.77;;;9.68;;
21014;SDS011;19207;-23.482;-46.500;2023-04-23T05:10:10;19.35;;;9.40;;
21014;SDS011;19207;-23.482;-46.500;2023-04-23T05:12:56;25.70;;;8.77;;
21014;SDS011;19207;-23.482;-46.500;2023-04-23T05:15:44;25.88;;;9.13;;
21014;SDS011;19207;-23.482;-46.500;2023-04-23T05:18:31;26.55;;;9.90;;
21014;SDS011;19207;-23.482;-46.500;2023-04-23T05:21:18;23.42;;;9.88;;
21014;SDS011;19207;-23.482;-46.500;2023-04-23T05:24:05;29.55;;;10.57;;
21014;SDS011;19207;-23.482;-46.500;2023-04-23T05:26:52;33.88;;;11.25;;
21014;SDS011;19207;-23.482;-46.500;2023-04-23T05:29:39;35.83;;;11.23;;
21014;SDS011;19207;-23.482;-46.500;2023-04-23T05:32:25;43.17;;;12.48;;
21014;SDS011;19207;-23.482;-46.500;2023-04-23T05:35:12;25.65;;;11.55;;
21014;SDS011;19207;-23.482;-46.500;2023-04-23T05:37:59;30.25;;;11.07;;
21014;SDS011;19207;-23.482;-46.500;2023-04-23T05:40:46;36.60;;;10.25;;
21014;SDS011;19207;-23.482;-46.500;2023-04-23T05:43:33;34.63;;;10.70;;
21014;SDS011;19207;-23.482;-46.500;2023-04-23T05:46:19;26.60;;;9.80;;
21014;SDS011;19207;-23.482;-46.500;2023-04-23T05:49:06;27.33;;;9.43;;
21014;SDS011;19207;-23.482;-46.500;2023-04-23T05:51:52;27.52;;;9.98;;
21014;SDS011;19207;-23.482;-46.500;2023-04-23T05:54:40;26.83;;;9.43;;
21014;SDS011;19207;-23.482;-46.500;2023-04-23T05:57:26;31.83;;;10.18;;
21014;SDS011;19207;-23.482;-46.500;2023-04-23T06:00:13;28.67;;;10.73;;
21014;SDS011;19207;-23.482;-46.500;2023-04-23T06:03:01;32.08;;;9.85;;
21014;SDS011;19207;-23.482;-46.500;2023-04-23T06:05:47;35.38;;;10.88;;
21014;SDS011;19207;-23.482;-46.500;2023-04-23T06:08:35;27.52;;;11.15;;
21014;SDS011;19207;-23.482;-46.500;2023-04-23T06:11:21;26.80;;;11.63;;
21014;SDS011;19207;-23.482;-46.500;2023-04-23T06:14:09;28.23;;;11.15;;
21014;SDS011;19207;-23.482;-46.500;2023-04-23T06:16:55;32.13;;;11.30;;
21014;SDS011;19207;-23.482;-46.500;2023-04-23T06:19:42;37.50;;;13.43;;
21014;SDS011;19207;-23.482;-46.500;2023-04-23T06:22:37;36.10;;;13.38;;
21014;SDS011;19207;-23.482;-46.500;2023-04-23T06:25:25;28.70;;;14.87;;
21014;SDS011;19207;-23.482;-46.500;2023-04-23T06:28:11;41.53;;;17.60;;
21014;SDS011;19207;-23.482;-46.500;2023-04-23T06:30:59;46.10;;;16.50;;
21014;SDS011;19207;-23.482;-46.500;2023-04-23T06:33:46;46.55;;;16.90;;
21014;SDS011;19207;-23.482;-46.500;2023-04-23T06:36:33;41.15;;;18.50;;
21014;SDS011;19207;-23.482;-46.500;2023-04-23T06:39:20;50.40;;;18.87;;
21014;SDS011;19207;-23.482;-46.500;2023-04-23T06:42:07;43.87;;;18.83;;
21014;SDS011;19207;-23.482;-46.500;2023-04-23T06:44:55;41.67;;;18.52;;
21014;SDS011;19207;-23.482;-46.500;2023-04-23T06:47:43;42.70;;;19.10;;
21014;SDS011;19207;-23.482;-46.500;2023-04-23T06:50:30;49.33;;;20.08;;
21014;SDS011;19207;-23.482;-46.500;2023-04-23T06:53:17;43.22;;;19.85;;
21014;SDS011;19207;-23.482;-46.500;2023-04-23T06:56:03;44.50;;;20.17;;
21014;SDS011;19207;-23.482;-46.500;2023-04-23T06:58:52;53.38;;;22.27;;
21014;SDS011;19207;-23.482;-46.500;2023-04-23T07:01:39;43.00;;;21.70;;
21014;SDS011;19207;-23.482;-46.500;2023-04-23T07:04:26;45.22;;;21.08;;
21014;SDS011;19207;-23.482;-46.500;2023-04-23T07:07:13;52.35;;;22.52;;
21014;SDS011;19207;-23.482;-46.500;2023-04-23T07:10:02;51.83;;;22.60;;
21014;SDS011;19207;-23.482;-46.500;2023-04-23T07:12:49;47.38;;;22.08;;
21014;SDS011;19207;-23.482;-46.500;2023-04-23T07:15:36;45.12;;;21.60;;
21014;SDS011;19207;-23.482;-46.500;2023-04-23T07:18:23;45.30;;;20.48;;
21014;SDS011;19207;-23.482;-46.500;2023-04-23T07:21:09;48.40;;;19.65;;
21014;SDS011;19207;-23.482;-46.500;2023-04-23T07:23:56;42.22;;;19.20;;
21014;SDS011;19207;-23.482;-46.500;2023-04-23T07:26:51;38.47;;;17.02;;
21014;SDS011;19207;-23.482;-46.500;2023-04-23T07:29:37;47.33;;;17.25;;
21014;SDS011;19207;-23.482;-46.500;2023-04-23T07:32:24;38.50;;;17.52;;
21014;SDS011;19207;-23.482;-46.500;2023-04-23T07:35:12;39.30;;;16.77;;
21014;SDS011;19207;-23.482;-46.500;2023-04-23T07:37:58;41.15;;;16.35;;
21014;SDS011;19207;-23.482;-46.500;2023-04-23T07:40:45;33.90;;;15.20;;
21014;SDS011;19207;-23.482;-46.500;2023-04-23T07:43:33;33.92;;;15.98;;
21014;SDS011;19207;-23.482;-46.500;2023-04-23T07:46:20;30.33;;;14.85;;
21014;SDS011;19207;-23.482;-46.500;2023-04-23T07:49:06;30.48;;;14.95;;
21014;SDS011;19207;-23.482;-46.500;2023-04-23T07:51:53;24.95;;;13.65;;
21014;SDS011;19207;-23.482;-46.500;2023-04-23T07:54:39;27.08;;;13.85;;
21014;SDS011;19207;-23.482;-46.500;2023-04-23T07:57:27;31.73;;;14.43;;
21014;SDS011;19207;-23.482;-46.500;2023-04-23T08:00:14;28.42;;;14.27;;
21014;SDS011;19207;-23.482;-46.500;2023-04-23T08:03:00;26.87;;;13.65;;
21014;SDS011;19207;-23.482;-46.500;2023-04-23T08:05:47;26.23;;;14.02;;
21014;SDS011;19207;-23.482;-46.500;2023-04-23T08:08:35;27.67;;;13.38;;
21014;SDS011;19207;-23.482;-46.500;2023-04-23T08:11:24;24.10;;;12.57;;
21014;SDS011;19207;-23.482;-46.500;2023-04-23T08:14:13;20.37;;;12.23;;
21014;SDS011;19207;-23.482;-46.500;2023-04-23T08:17:00;24.10;;;12.07;;
21014;SDS011;19207;-23.482;-46.500;2023-04-23T08:19:47;22.40;;;11.80;;
21014;SDS011;19207;-23.482;-46.500;2023-04-23T08:22:34;22.37;;;11.15;;
21014;SDS011;19207;-23.482;-46.500;2023-04-23T08:25:21;20.52;;;11.52;;
21014;SDS011;19207;-23.482;-46.500;2023-04-23T08:28:08;22.90;;;10.65;;
21014;SDS011;19207;-23.482;-46.500;2023-04-23T08:30:54;18.85;;;10.85;;
21014;SDS011;19207;-23.482;-46.500;2023-04-23T08:33:42;19.08;;;11.50;;
21014;SDS011;19207;-23.482;-46.500;2023-04-23T08:36:29;21.25;;;10.68;;
21014;SDS011;19207;-23.482;-46.500;2023-04-23T08:39:16;22.20;;;11.45;;
21014;SDS011;19207;-23.482;-46.500;2023-04-23T08:42:09;23.12;;;10.57;;
21014;SDS011;19207;-23.482;-46.500;2023-04-23T08:44:56;27.55;;;11.43;;
21014;SDS011;19207;-23.482;-46.500;2023-04-23T08:47:44;17.12;;;10.27;;
21014;SDS011;19207;-23.482;-46.500;2023-04-23T08:50:30;22.73;;;10.48;;
21014;SDS011;19207;-23.482;-46.500;2023-04-23T08:53:18;21.55;;;11.45;;
21014;SDS011;19207;-23.482;-46.500;2023-04-23T08:56:05;20.52;;;10.48;;
21014;SDS011;19207;-23.482;-46.500;2023-04-23T08:58:53;21.08;;;10.25;;
21014;SDS011;19207;-23.482;-46.500;2023-04-23T09:01:40;20.83;;;10.38;;
21014;SDS011;19207;-23.482;-46.500;2023-04-23T09:04:28;18.17;;;10.13;;
21014;SDS011;19207;-23.482;-46.500;2023-04-23T09:07:15;17.95;;;10.48;;
21014;SDS011;19207;-23.482;-46.500;2023-04-23T09:10:05;16.23;;;9.80;;
21014;SDS011;19207;-23.482;-46.500;2023-04-23T09:12:54;22.10;;;10.20;;
21014;SDS011;19207;-23.482;-46.500;2023-04-23T09:15:41;20.40;;;10.23;;
21014;SDS011;19207;-23.482;-46.500;2023-04-23T09:18:28;22.23;;;11.65;;
21014;SDS011;19207;-23.482;-46.500;2023-04-23T09:21:14;21.95;;;11.48;;
21014;SDS011;19207;-23.482;-46.500;2023-04-23T09:24:04;22.65;;;11.77;;
21014;SDS011;19207;-23.482;-46.500;2023-04-23T09:26:52;29.42;;;12.65;;
21014;SDS011;19207;-23.482;-46.500;2023-04-23T09:29:39;30.98;;;12.40;;
21014;SDS011;19207;-23.482;-46.500;2023-04-23T09:32:30;35.50;;;13.65;;
21014;SDS011;19207;-23.482;-46.500;2023-04-23T09:35:20;25.70;;;13.13;;
21014;SDS011;19207;-23.482;-46.500;2023-04-23T09:38:07;33.08;;;12.98;;
21014;SDS011;19207;-23.482;-46.500;2023-04-23T09:40:54;30.15;;;13.02;;
21014;SDS011;19207;-23.482;-46.500;2023-04-23T09:43:42;34.65;;;14.10;;
21014;SDS011;19207;-23.482;-46.500;2023-04-23T09:46:33;29.80;;;13.88;;
21014;SDS011;19207;-23.482;-46.500;2023-04-23T09:49:20;31.37;;;13.25;;
21014;SDS011;19207;-23.482;-46.500;2023-04-23T09:52:07;24.73;;;12.73;;
21014;SDS011;19207;-23.482;-46.500;2023-04-23T09:54:57;32.28;;;12.45;;
21014;SDS011;19207;-23.482;-46.500;2023-04-23T09:57:43;27.23;;;10.50;;
21014;SDS011;19207;-23.482;-46.500;2023-04-23T10:00:35;23.33;;;10.52;;
21014;SDS011;19207;-23.482;-46.500;2023-04-23T10:03:26;25.50;;;10.85;;
21014;SDS011;19207;-23.482;-46.500;2023-04-23T10:06:13;20.60;;;10.45;;
21014;SDS011;19207;-23.482;-46.500;2023-04-23T10:09:00;22.52;;;9.90;;
21014;SDS011;19207;-23.482;-46.500;2023-04-23T10:11:46;19.17;;;9.25;;
21014;SDS011;19207;-23.482;-46.500;2023-04-23T10:14:34;14.32;;;8.60;;
21014;SDS011;19207;-23.482;-46.500;2023-04-23T10:17:21;12.73;;;7.75;;
21014;SDS011;19207;-23.482;-46.500;2023-04-23T10:20:09;17.02;;;7.97;;
21014;SDS011;19207;-23.482;-46.500;2023-04-23T10:22:57;19.83;;;8.27;;
21014;SDS011;19207;-23.482;-46.500;2023-04-23T10:25:46;17.90;;;7.68;;
21014;SDS011;19207;-23.482;-46.500;2023-04-23T10:28:33;18.80;;;8.35;;
21014;SDS011;19207;-23.482;-46.500;2023-04-23T10:31:20;17.92;;;8.95;;
21014;SDS011;19207;-23.482;-46.500;2023-04-23T10:34:10;22.98;;;8.88;;
21014;SDS011;19207;-23.482;-46.500;2023-04-23T10:36:58;13.23;;;8.82;;
21014;SDS011;19207;-23.482;-46.500;2023-04-23T10:39:48;18.55;;;9.10;;
21014;SDS011;19207;-23.482;-46.500;2023-04-23T10:42:36;25.92;;;10.27;;
21014;SDS011;19207;-23.482;-46.500;2023-04-23T10:45:23;20.37;;;9.27;;
21014;SDS011;19207;-23.482;-46.500;2023-04-23T10:48:10;16.08;;;9.93;;
21014;SDS011;19207;-23.482;-46.500;2023-04-23T10:50:57;17.62;;;9.88;;
21014;SDS011;19207;-23.482;-46.500;2023-04-23T10:53:44;18.50;;;9.68;;
21014;SDS011;19207;-23.482;-46.500;2023-04-23T10:56:31;16.52;;;8.48;;
21014;SDS011;19207;-23.482;-46.500;2023-04-23T10:59:19;16.58;;;7.97;;
21014;SDS011;19207;-23.482;-46.500;2023-04-23T11:04:56;18.85;;;9.13;;
21014;SDS011;19207;-23.482;-46.500;2023-04-23T11:08:00;16.92;;;8.65;;
21014;SDS011;19207;-23.482;-46.500;2023-04-23T11:10:54;21.67;;;9.68;;
21014;SDS011;19207;-23.482;-46.500;2023-04-23T11:13:49;21.92;;;9.73;;
21014;SDS011;19207;-23.482;-46.500;2023-04-23T11:16:40;23.77;;;9.98;;
21014;SDS011;19207;-23.482;-46.500;2023-04-23T11:19:27;16.83;;;8.55;;
21014;SDS011;19207;-23.482;-46.500;2023-04-23T11:22:14;18.50;;;9.00;;
21014;SDS011;19207;-23.482;-46.500;2023-04-23T11:25:09;16.65;;;8.65;;
21014;SDS011;19207;-23.482;-46.500;2023-04-23T11:27:56;15.75;;;8.85;;
21014;SDS011;19207;-23.482;-46.500;2023-04-23T11:30:43;13.20;;;8.05;;
21014;SDS011;19207;-23.482;-46.500;2023-04-23T11:33:29;20.85;;;8.85;;
21014;SDS011;19207;-23.482;-46.500;2023-04-23T11:36:17;13.82;;;8.23;;
21014;SDS011;19207;-23.482;-46.500;2023-04-23T11:39:03;19.45;;;8.10;;
21014;SDS011;19207;-23.482;-46.500;2023-04-23T11:41:51;16.87;;;7.82;;
21014;SDS011;19207;-23.482;-46.500;2023-04-23T11:44:39;14.32;;;7.90;;
21014;SDS011;19207;-23.482;-46.500;2023-04-23T11:47:26;16.10;;;7.85;;
21014;SDS011;19207;-23.482;-46.500;2023-04-23T11:50:19;14.95;;;7.32;;
21014;SDS011;19207;-23.482;-46.500;2023-04-23T11:53:07;15.93;;;7.47;;
21014;SDS011;19207;-23.482;-46.500;2023-04-23T11:55:54;11.80;;;8.25;;
21014;SDS011;19207;-23.482;-46.500;2023-04-23T11:58:41;14.38;;;7.72;;
21014;SDS011;19207;-23.482;-46.500;2023-04-23T12:01:47;15.00;;;7.53;;
21014;SDS011;19207;-23.482;-46.500;2023-04-23T12:04:34;17.55;;;8.60;;
21014;SDS011;19207;-23.482;-46.500;2023-04-23T12:07:30;17.27;;;8.68;;
21014;SDS011;19207;-23.482;-46.500;2023-04-23T12:10:18;13.80;;;8.35;;
21014;SDS011;19207;-23.482;-46.500;2023-04-23T12:13:04;15.27;;;8.25;;
21014;SDS011;19207;-23.482;-46.500;2023-04-23T12:15:52;14.55;;;8.80;;
21014;SDS011;19207;-23.482;-46.500;2023-04-23T12:18:41;17.55;;;8.90;;
21014;SDS011;19207;-23.482;-46.500;2023-04-23T12:21:28;21.62;;;9.25;;
21014;SDS011;19207;-23.482;-46.500;2023-04-23T12:24:15;15.68;;;8.57;;
21014;SDS011;19207;-23.482;-46.500;2023-04-23T12:27:01;17.17;;;8.20;;
21014;SDS011;19207;-23.482;-46.500;2023-04-23T12:29:48;17.48;;;8.68;;
21014;SDS011;19207;-23.482;-46.500;2023-04-23T12:32:35;12.82;;;8.43;;
21014;SDS011;19207;-23.482;-46.500;2023-04-23T12:35:36;16.52;;;9.00;;
21014;SDS011;19207;-23.482;-46.500;2023-04-23T12:38:23;25.60;;;9.05;;
21014;SDS011;19207;-23.482;-46.500;2023-04-23T12:41:10;13.73;;;8.60;;
21014;SDS011;19207;-23.482;-46.500;2023-04-23T12:43:57;14.18;;;8.10;;
21014;SDS011;19207;-23.482;-46.500;2023-04-23T12:46:43;13.23;;;8.48;;
21014;SDS011;19207;-23.482;-46.500;2023-04-23T12:49:31;14.20;;;7.78;;
21014;SDS011;19207;-23.482;-46.500;2023-04-23T12:52:18;16.08;;;8.20;;
21014;SDS011;19207;-23.482;-46.500;2023-04-23T12:55:05;13.02;;;7.20;;
21014;SDS011;19207;-23.482;-46.500;2023-04-23T12:57:52;15.02;;;7.15;;
21014;SDS011;19207;-23.482;-46.500;2023-04-23T13:00:38;12.60;;;7.12;;
21014;SDS011;19207;-23.482;-46.500;2023-04-23T13:03:25;15.70;;;7.68;;
21014;SDS011;19207;-23.482;-46.500;2023-04-23T13:06:12;12.85;;;7.43;;
21014;SDS011;19207;-23.482;-46.500;2023-04-23T13:08:58;16.40;;;7.97;;
21014;SDS011;19207;-23.482;-46.500;2023-04-23T13:11:47;11.77;;;7.28;;
21014;SDS011;19207;-23.482;-46.500;2023-04-23T13:14:34;15.80;;;8.05;;
21014;SDS011;19207;-23.482;-46.500;2023-04-23T13:17:21;12.57;;;8.10;;
21014;SDS011;19207;-23.482;-46.500;2023-04-23T13:20:11;12.13;;;7.47;;
21014;SDS011;19207;-23.482;-46.500;2023-04-23T13:22:58;13.80;;;7.03;;
21014;SDS011;19207;-23.482;-46.500;2023-04-23T13:25:46;13.05;;;7.15;;
21014;SDS011;19207;-23.482;-46.500;2023-04-23T13:28:34;14.38;;;8.15;;
21014;SDS011;19207;-23.482;-46.500;2023-04-23T13:31:20;12.37;;;7.43;;
21014;SDS011;19207;-23.482;-46.500;2023-04-23T13:34:08;15.18;;;7.35;;
21014;SDS011;19207;-23.482;-46.500;2023-04-23T13:36:55;14.57;;;7.68;;
21014;SDS011;19207;-23.482;-46.500;2023-04-23T13:39:42;11.70;;;6.35;;
21014;SDS011;19207;-23.482;-46.500;2023-04-23T13:42:29;7.05;;;5.18;;
21014;SDS011;19207;-23.482;-46.500;2023-04-23T13:45:16;13.85;;;5.75;;
21014;SDS011;19207;-23.482;-46.500;2023-04-23T13:48:03;8.30;;;4.68;;
21014;SDS011;19207;-23.482;-46.500;2023-04-23T13:50:52;10.60;;;5.45;;
21014;SDS011;19207;-23.482;-46.500;2023-04-23T13:53:38;8.00;;;5.37;;
21014;SDS011;19207;-23.482;-46.500;2023-04-23T13:56:27;8.52;;;5.97;;
21014;SDS011;19207;-23.482;-46.500;2023-04-23T13:59:14;13.05;;;6.30;;
21014;SDS011;19207;-23.482;-46.500;2023-04-23T14:02:00;12.80;;;6.35;;
21014;SDS011;19207;-23.482;-46.500;2023-04-23T14:04:47;11.40;;;6.15;;
21014;SDS011;19207;-23.482;-46.500;2023-04-23T14:07:34;7.40;;;5.70;;
21014;SDS011;19207;-23.482;-46.500;2023-04-23T14:10:21;11.45;;;6.00;;
21014;SDS011;19207;-23.482;-46.500;2023-04-23T14:13:07;7.85;;;5.37;;
21014;SDS011;19207;-23.482;-46.500;2023-04-23T14:15:54;11.15;;;5.50;;
21014;SDS011;19207;-23.482;-46.500;2023-04-23T14:18:41;7.20;;;5.43;;
21014;SDS011;19207;-23.482;-46.500;2023-04-23T14:21:29;8.07;;;5.65;;
21014;SDS011;19207;-23.482;-46.500;2023-04-23T14:24:32;15.60;;;6.45;;
21014;SDS011;19207;-23.482;-46.500;2023-04-23T14:27:18;13.00;;;6.70;;
21014;SDS011;19207;-23.482;-46.500;2023-04-23T14:30:05;10.68;;;6.25;;
21014;SDS011;19207;-23.482;-46.500;2023-04-23T14:32:59;8.98;;;6.25;;
21014;SDS011;19207;-23.482;-46.500;2023-04-23T14:35:46;9.27;;;5.70;;
21014;SDS011;19207;-23.482;-46.500;2023-04-23T14:38:32;7.50;;;5.72;;
21014;SDS011;19207;-23.482;-46.500;2023-04-23T14:41:19;10.73;;;5.50;;
21014;SDS011;19207;-23.482;-46.500;2023-04-23T14:44:06;10.73;;;5.87;;
21014;SDS011;19207;-23.482;-46.500;2023-04-23T14:46:53;7.45;;;5.18;;
21014;SDS011;19207;-23.482;-46.500;2023-04-23T14:49:40;7.90;;;5.87;;
21014;SDS011;19207;-23.482;-46.500;2023-04-23T14:52:27;8.07;;;5.60;;
21014;SDS011;19207;-23.482;-46.500;2023-04-23T14:55:15;7.93;;;4.78;;
21014;SDS011;19207;-23.482;-46.500;2023-04-23T14:58:02;7.50;;;5.40;;
21014;SDS011;19207;-23.482;-46.500;2023-04-23T15:00:49;11.05;;;5.55;;
21014;SDS011;19207;-23.482;-46.500;2023-04-23T15:03:35;8.38;;;5.30;;
21014;SDS011;19207;-23.482;-46.500;2023-04-23T15:06:22;10.38;;;5.60;;
21014;SDS011;19207;-23.482;-46.500;2023-04-23T15:09:08;7.45;;;5.10;;
21014;SDS011;19207;-23.482;-46.500;2023-04-23T15:11:55;10.48;;;5.40;;
21014;SDS011;19207;-23.482;-46.500;2023-04-23T15:14:42;6.20;;;5.03;;
21014;SDS011;19207;-23.482;-46.500;2023-04-23T15:17:29;6.55;;;5.45;;
21014;SDS011;19207;-23.482;-46.500;2023-04-23T15:20:16;7.35;;;5.10;;
21014;SDS011;19207;-23.482;-46.500;2023-04-23T15:23:06;11.75;;;5.75;;
21014;SDS011;19207;-23.482;-46.500;2023-04-23T15:25:52;7.55;;;5.90;;
21014;SDS011;19207;-23.482;-46.500;2023-04-23T15:28:39;9.27;;;6.18;;
21014;SDS011;19207;-23.482;-46.500;2023-04-23T15:31:25;8.10;;;5.78;;
21014;SDS011;19207;-23.482;-46.500;2023-04-23T15:34:13;15.77;;;6.55;;
21014;SDS011;19207;-23.482;-46.500;2023-04-23T15:37:00;9.10;;;5.53;;
21014;SDS011;19207;-23.482;-46.500;2023-04-23T15:39:46;6.93;;;5.18;;
21014;SDS011;19207;-23.482;-46.500;2023-04-23T15:42:33;7.53;;;6.22;;
21014;SDS011;19207;-23.482;-46.500;2023-04-23T15:45:20;10.80;;;6.20;;
21014;SDS011;19207;-23.482;-46.500;2023-04-23T15:48:07;15.30;;;6.37;;
21014;SDS011;19207;-23.482;-46.500;2023-04-23T15:50:54;7.90;;;5.90;;